createdAt,value
2022-08-17T00:00:34.981Z,94446.50
2022-08-17T00:01:51.275Z,94463.41
2022-08-17T00:03:11.086Z,94449.00
2022-08-17T00:04:11.942Z,94466.75
2022-08-17T00:05:08.775Z,94331.97
2022-08-17T00:06:12.830Z,94466.66
2022-08-17T00:07:09.697Z,94465.72
2022-08-17T00:08:06.801Z,94440.56
2022-08-17T00:09:05.179Z,94465.16
2022-08-17T00:10:02.034Z,94436.56
2022-08-17T00:11:00.242Z,94460.09
2022-08-17T00:12:40.410Z,94429.56
2022-08-17T00:13:37.112Z,94456.06
2022-08-17T00:14:33.994Z,94418.88
2022-08-17T00:15:30.730Z,94459.94
2022-08-17T00:16:56.787Z,94455.66
2022-08-17T00:17:54.337Z,94442.56
2022-08-17T00:19:01.133Z,94460.66
2022-08-17T00:20:06.346Z,94444.75
2022-08-17T00:21:10.380Z,94454.72
2022-08-17T00:22:32.676Z,94451.13
2022-08-17T00:23:25.770Z,94453.72
2022-08-17T00:24:22.556Z,94414.53
2022-08-17T00:25:20.122Z,94470.34
2022-08-17T00:26:34.883Z,94434.22
2022-08-17T00:27:36.945Z,94460.38
2022-08-17T00:28:33.727Z,94419.25
2022-08-17T00:29:30.459Z,94447.50
2022-08-17T00:30:27.255Z,94464.56
2022-08-17T00:31:24.890Z,94355.00
2022-08-17T00:33:11.651Z,94452.34
2022-08-17T00:33:40.309Z,94442.91
2022-08-17T00:34:37.059Z,94470.84
2022-08-17T00:35:34.681Z,94407.66
2022-08-17T00:36:31.614Z,94443.88
2022-08-17T00:37:28.317Z,94405.34
2022-08-17T00:38:26.777Z,94411.59
2022-08-17T00:39:23.850Z,94452.19
2022-08-17T00:40:21.688Z,94457.75
2022-08-17T00:41:25.486Z,94456.28
2022-08-17T00:42:24.498Z,94445.69
2022-08-17T00:43:32.666Z,94434.88
2022-08-17T00:44:31.237Z,94455.88
2022-08-17T00:45:28.213Z,94437.66
2022-08-17T00:46:38.166Z,94449.19
2022-08-17T00:47:34.998Z,94425.81
2022-08-17T00:48:33.345Z,94443.88
2022-08-17T00:49:31.352Z,94439.63
2022-08-17T00:50:28.174Z,94449.03
2022-08-17T00:51:43.827Z,94440.28
2022-08-17T00:52:52.470Z,94390.72
2022-08-17T00:54:08.531Z,94443.22
2022-08-17T00:55:08.670Z,94457.69
2022-08-17T00:56:10.741Z,94444.31
2022-08-17T00:57:12.416Z,94446.78
2022-08-17T00:58:10.607Z,94447.59
2022-08-17T00:59:11.398Z,94438.34
2022-08-17T01:00:19.611Z,94443.91
2022-08-17T01:01:21.721Z,94398.84
2022-08-17T01:02:20.075Z,94396.09
2022-08-17T01:03:27.418Z,94450.00
2022-08-17T01:04:27.690Z,94442.84
2022-08-17T01:05:29.338Z,94440.00
2022-08-17T01:06:27.138Z,94436.81
2022-08-17T01:07:26.266Z,94435.25
2022-08-17T01:08:28.087Z,94444.34
2022-08-17T01:09:25.770Z,94449.19
2022-08-17T01:10:58.383Z,94419.19
2022-08-17T01:11:52.146Z,94459.66
2022-08-17T01:12:49.670Z,94455.16
2022-08-17T01:13:47.752Z,94461.19
2022-08-17T01:14:44.523Z,94462.91
2022-08-17T01:15:57.817Z,94435.53
2022-08-17T01:16:56.317Z,94406.78
2022-08-17T01:17:53.106Z,94437.34
2022-08-17T01:18:54.347Z,94447.56
2022-08-17T01:19:51.122Z,94429.97
2022-08-17T01:20:53.634Z,94445.09
2022-08-17T01:21:55.631Z,94459.50
2022-08-17T01:22:54.218Z,94423.53
2022-08-17T01:23:50.995Z,94463.44
2022-08-17T01:24:56.222Z,94402.88
2022-08-17T01:25:57.426Z,94462.66
2022-08-17T01:26:54.165Z,94465.09
2022-08-17T01:27:53.546Z,94462.47
2022-08-17T01:28:54.328Z,94456.53
2022-08-17T01:29:58.638Z,94453.31
2022-08-17T01:30:58.042Z,94432.31
2022-08-17T01:32:00.446Z,94432.41
2022-08-17T01:32:57.169Z,94416.34
2022-08-17T01:33:53.956Z,94421.69
2022-08-17T01:34:52.770Z,94409.97
2022-08-17T01:35:49.474Z,94462.13
2022-08-17T01:36:49.115Z,94460.44
2022-08-17T01:37:46.291Z,94423.28
2022-08-17T01:38:43.571Z,94446.69
2022-08-17T01:39:40.309Z,94439.88
2022-08-17T01:40:43.720Z,94439.84
2022-08-17T01:41:41.226Z,94409.88
2022-08-17T01:42:59.955Z,94454.78
2022-08-17T01:44:07.938Z,94446.31
2022-08-17T01:45:11.752Z,94440.03
2022-08-17T01:46:08.620Z,94435.31
2022-08-17T01:47:06.187Z,94319.03
2022-08-17T01:48:03.200Z,94447.44
2022-08-17T01:49:05.353Z,94416.31
2022-08-17T01:50:10.290Z,94389.69
2022-08-17T01:51:07.633Z,94416.78
2022-08-17T01:52:08.669Z,94451.09
2022-08-17T01:53:13.047Z,94451.88
2022-08-17T01:54:15.074Z,94443.75
2022-08-17T01:55:15.789Z,94347.19
2022-08-17T01:56:18.188Z,94461.53
2022-08-17T01:57:14.992Z,94449.09
2022-08-17T01:58:11.924Z,94465.09
2022-08-17T01:59:09.496Z,94424.94
2022-08-17T02:00:10.370Z,94415.75
2022-08-17T02:01:08.694Z,94413.25
2022-08-17T02:02:07.498Z,94446.09
2022-08-17T02:03:05.329Z,94354.81
2022-08-17T02:04:03.538Z,94340.44
2022-08-17T02:05:00.390Z,94320.94
2022-08-17T02:05:58.138Z,94432.22
2022-08-17T02:06:54.941Z,94447.94
2022-08-17T02:08:00.638Z,94434.94
2022-08-17T02:09:02.362Z,94453.28
2022-08-17T02:10:00.459Z,94463.25
2022-08-17T02:10:57.202Z,94415.25
2022-08-17T02:12:00.089Z,94457.03
2022-08-17T02:13:17.053Z,94432.59
2022-08-17T02:14:14.941Z,94456.72
2022-08-17T02:15:12.571Z,94460.78
2022-08-17T02:16:09.507Z,94453.03
2022-08-17T02:17:06.321Z,94455.50
2022-08-17T02:18:05.698Z,94450.44
2022-08-17T02:19:03.185Z,94451.75
2022-08-17T02:19:59.912Z,94447.09
2022-08-17T02:20:57.266Z,94461.41
2022-08-17T02:21:55.146Z,94447.75
2022-08-17T02:22:52.212Z,94324.31
2022-08-17T02:23:50.476Z,94446.16
2022-08-17T02:25:01.115Z,94463.00
2022-08-17T02:26:00.334Z,94424.88
2022-08-17T02:26:57.103Z,94450.66
2022-08-17T02:27:53.885Z,94421.69
2022-08-17T02:28:51.034Z,94450.41
2022-08-17T02:29:48.340Z,94454.09
2022-08-17T02:31:01.746Z,94427.03
2022-08-17T02:32:01.930Z,94408.16
2022-08-17T02:32:58.985Z,94440.78
2022-08-17T02:34:03.884Z,94447.81
2022-08-17T02:35:02.155Z,94412.66
2022-08-17T02:35:58.972Z,94435.69
2022-08-17T02:36:55.989Z,94447.66
2022-08-17T02:37:55.437Z,94372.81
2022-08-17T02:38:52.650Z,94454.28
2022-08-17T02:39:49.534Z,94430.94
2022-08-17T02:40:47.561Z,94448.38
2022-08-17T02:41:45.026Z,94453.84
2022-08-17T02:42:44.006Z,94443.03
2022-08-17T02:43:40.881Z,94464.84
2022-08-17T02:44:39.965Z,94468.94
2022-08-17T02:45:37.206Z,94470.53
2022-08-17T02:46:34.339Z,94469.53
2022-08-17T02:47:31.361Z,94474.88
2022-08-17T02:48:30.944Z,94473.78
2022-08-17T02:49:28.650Z,94458.81
2022-08-17T02:50:26.825Z,94340.91
2022-08-17T02:51:23.827Z,94459.47
2022-08-17T02:52:43.003Z,94469.00
2022-08-17T02:53:38.157Z,94476.34
2022-08-17T02:54:40.818Z,94352.34
2022-08-17T02:55:40.940Z,94474.88
2022-08-17T02:56:37.707Z,94448.22
2022-08-17T02:57:34.461Z,94455.69
2022-08-17T02:58:35.200Z,94472.19
2022-08-17T02:59:32.653Z,94473.19
2022-08-17T03:00:36.327Z,94471.94
2022-08-17T03:01:33.141Z,94471.97
2022-08-17T03:02:30.032Z,94445.59
2022-08-17T03:03:26.939Z,94473.19
2022-08-17T03:04:23.933Z,94449.88
2022-08-17T03:05:24.909Z,94483.03
2022-08-17T03:06:21.628Z,94469.34
2022-08-17T03:07:20.266Z,94475.19
2022-08-17T03:08:17.783Z,94454.25
2022-08-17T03:09:16.812Z,94486.94
2022-08-17T03:10:14.712Z,94490.66
2022-08-17T03:11:11.495Z,94450.38
2022-08-17T03:12:12.897Z,94474.03
2022-08-17T03:13:10.606Z,94464.28
2022-08-17T03:14:07.346Z,94448.56
2022-08-17T03:15:06.966Z,94472.50
2022-08-17T03:16:03.901Z,94489.84
2022-08-17T03:17:01.267Z,94464.09
2022-08-17T03:17:59.152Z,94491.50
2022-08-17T03:18:55.922Z,94434.56
2022-08-17T03:19:52.641Z,94506.16
2022-08-17T03:20:49.734Z,94458.28
2022-08-17T03:21:46.445Z,94502.16
2022-08-17T03:22:55.564Z,94466.75
2022-08-17T03:23:59.487Z,94502.03
2022-08-17T03:24:57.047Z,94491.59
2022-08-17T03:25:55.115Z,94488.13
2022-08-17T03:26:52.420Z,94450.38
2022-08-17T03:27:49.454Z,94491.63
2022-08-17T03:28:48.246Z,94274.09
2022-08-17T03:29:45.070Z,94480.91
2022-08-17T03:30:41.903Z,94485.72
2022-08-17T03:31:38.647Z,94417.63
2022-08-17T03:32:41.757Z,94474.19
2022-08-17T03:33:38.531Z,94500.06
2022-08-17T03:34:35.280Z,94450.00
2022-08-17T03:35:34.162Z,94454.03
2022-08-17T03:36:30.922Z,94492.59
2022-08-17T03:37:32.733Z,94495.28
2022-08-17T03:38:29.549Z,94454.28
2022-08-17T03:39:36.308Z,94480.53
2022-08-17T03:40:55.530Z,94489.41
2022-08-17T03:41:49.923Z,94471.31
2022-08-17T03:42:47.523Z,94470.44
2022-08-17T03:43:44.221Z,94485.25
2022-08-17T03:44:40.999Z,94487.59
2022-08-17T03:45:57.007Z,94490.25
2022-08-17T03:47:12.370Z,94497.41
2022-08-17T03:48:29.172Z,94478.53
2022-08-17T03:49:44.568Z,94455.22
2022-08-17T03:51:00.003Z,94486.09
2022-08-17T03:52:16.530Z,94462.69
2022-08-17T03:53:35.440Z,94496.69
2022-08-17T03:54:50.707Z,94505.84
2022-08-17T03:56:05.926Z,94364.50
2022-08-17T03:57:08.682Z,94455.88
2022-08-17T03:58:05.418Z,94501.66
2022-08-17T03:59:02.269Z,94505.91
2022-08-17T03:59:59.873Z,94508.56
2022-08-17T04:00:56.918Z,94466.50
2022-08-17T04:01:58.370Z,94488.84
2022-08-17T04:02:55.410Z,94523.47
2022-08-17T04:03:52.250Z,94422.13
2022-08-17T04:04:50.984Z,94502.84
2022-08-17T04:05:47.951Z,94511.59
2022-08-17T04:06:45.183Z,94500.28
2022-08-17T04:07:41.913Z,94489.63
2022-08-17T04:08:38.780Z,94497.41
2022-08-17T04:09:36.630Z,94490.53
2022-08-17T04:10:41.372Z,94524.50
2022-08-17T04:11:42.817Z,94518.13
2022-08-17T04:12:50.020Z,94504.88
2022-08-17T04:13:46.886Z,94513.91
2022-08-17T04:14:53.107Z,94498.47
2022-08-17T04:15:51.107Z,94506.84
2022-08-17T04:16:47.888Z,94480.97
2022-08-17T04:17:45.786Z,94430.22
2022-08-17T04:18:42.518Z,94507.28
2022-08-17T04:19:39.268Z,94525.69
2022-08-17T04:20:36.003Z,94392.00
2022-08-17T04:21:34.416Z,94500.00
2022-08-17T04:22:34.194Z,94526.31
2022-08-17T04:23:33.781Z,94538.78
2022-08-17T04:24:30.904Z,94390.09
2022-08-17T04:25:30.261Z,94528.28
2022-08-17T04:26:52.905Z,94521.09
2022-08-17T04:27:45.122Z,94541.59
2022-08-17T04:28:43.264Z,94530.75
2022-08-17T04:29:54.384Z,94540.72
2022-08-17T04:30:52.064Z,94540.03
2022-08-17T04:31:48.920Z,94541.56
2022-08-17T04:33:03.670Z,94498.94
2022-08-17T04:34:03.317Z,94535.66
2022-08-17T04:35:00.848Z,94506.59
2022-08-17T04:36:01.262Z,94542.97
2022-08-17T04:36:57.967Z,94526.41
2022-08-17T04:37:54.897Z,94551.69
2022-08-17T04:38:51.806Z,94551.41
2022-08-17T04:40:08.548Z,94446.59
2022-08-17T04:41:25.123Z,94536.56
2022-08-17T04:42:21.832Z,94539.34
2022-08-17T04:43:21.522Z,94526.84
2022-08-17T04:44:28.347Z,94538.69
2022-08-17T04:45:39.061Z,94494.22
2022-08-17T04:46:36.874Z,94541.47
2022-08-17T04:47:33.624Z,94519.44
2022-08-17T04:48:36.199Z,94521.44
2022-08-17T04:49:35.072Z,94556.56
2022-08-17T04:50:34.693Z,94509.13
2022-08-17T04:51:38.585Z,94543.81
2022-08-17T04:52:46.206Z,94540.47
2022-08-17T04:53:54.128Z,94541.84
2022-08-17T04:54:51.587Z,94549.94
2022-08-17T04:55:48.461Z,94558.56
2022-08-17T04:56:45.901Z,94550.94
2022-08-17T04:57:45.056Z,94552.34
2022-08-17T04:58:47.883Z,94552.28
2022-08-17T04:59:46.549Z,94510.59
2022-08-17T05:00:43.304Z,94560.84
2022-08-17T05:01:42.990Z,94504.13
2022-08-17T05:02:50.736Z,94559.88
2022-08-17T05:03:47.930Z,94561.03
2022-08-17T05:04:44.727Z,94552.03
2022-08-17T05:05:49.827Z,94558.47
2022-08-17T05:06:47.327Z,94543.91
2022-08-17T05:07:44.058Z,94522.22
2022-08-17T05:08:40.874Z,94565.34
2022-08-17T05:09:37.634Z,94540.31
2022-08-17T05:10:45.141Z,94529.72
2022-08-17T05:11:44.976Z,94435.25
2022-08-17T05:12:41.918Z,94540.34
2022-08-17T05:13:38.754Z,94544.47
2022-08-17T05:14:35.547Z,94554.88
2022-08-17T05:15:36.078Z,94531.22
2022-08-17T05:16:32.933Z,94562.28
2022-08-17T05:17:29.830Z,94416.94
2022-08-17T05:18:28.194Z,94524.84
2022-08-17T05:19:24.945Z,94551.47
2022-08-17T05:20:23.554Z,94518.03
2022-08-17T05:21:22.933Z,94549.44
2022-08-17T05:22:19.666Z,94548.19
2022-08-17T05:23:19.011Z,94547.63
2022-08-17T05:24:43.334Z,94512.41
2022-08-17T05:25:37.444Z,94558.28
2022-08-17T05:26:34.249Z,94559.41
2022-08-17T05:27:35.412Z,94478.09
2022-08-17T05:28:33.056Z,94528.34
2022-08-17T05:29:35.343Z,94515.84
2022-08-17T05:30:32.973Z,94560.28
2022-08-17T05:31:31.058Z,94527.34
2022-08-17T05:32:38.457Z,94568.81
2022-08-17T05:33:42.672Z,94564.88
2022-08-17T05:34:41.211Z,94570.69
2022-08-17T05:35:46.951Z,94551.59
2022-08-17T05:36:44.611Z,94563.19
2022-08-17T05:37:41.397Z,94559.47
2022-08-17T05:38:38.449Z,94561.44
2022-08-17T05:39:35.278Z,94570.19
2022-08-17T05:40:32.896Z,94538.56
2022-08-17T05:41:30.136Z,94558.09
2022-08-17T05:42:27.013Z,94450.47
2022-08-17T05:43:30.565Z,94559.72
2022-08-17T05:44:27.330Z,94571.25
2022-08-17T05:45:54.350Z,94533.00
2022-08-17T05:46:47.973Z,94563.63
2022-08-17T05:47:47.491Z,94549.78
2022-08-17T05:48:48.600Z,94569.78
2022-08-17T05:49:45.525Z,94562.31
2022-08-17T05:51:16.615Z,94560.25
2022-08-17T05:52:25.620Z,94550.38
2022-08-17T05:53:44.546Z,94454.78
2022-08-17T05:54:50.184Z,94555.56
2022-08-17T05:56:30.190Z,94554.84
2022-08-17T05:58:03.991Z,94554.41
2022-08-17T05:59:16.021Z,94561.44
2022-08-17T06:00:17.046Z,94564.72
2022-08-17T06:01:29.213Z,94552.09
2022-08-17T06:03:11.135Z,94550.06
2022-08-17T06:04:10.442Z,94551.91
2022-08-17T06:05:15.883Z,94554.59
2022-08-17T06:06:34.279Z,94554.41
2022-08-17T06:07:30.997Z,94561.66
2022-08-17T06:08:53.582Z,94438.16
2022-08-17T06:10:05.272Z,94567.34
2022-08-17T06:11:19.873Z,94563.34
2022-08-17T06:12:34.982Z,94557.56
2022-08-17T06:14:03.501Z,94566.84
2022-08-17T06:15:19.587Z,94570.09
2022-08-17T06:16:33.191Z,94564.75
2022-08-17T06:17:32.165Z,94565.00
2022-08-17T06:18:41.937Z,94545.03
2022-08-17T06:19:46.964Z,94554.00
2022-08-17T06:20:52.270Z,94568.91
2022-08-17T06:21:53.635Z,94567.84
2022-08-17T06:22:58.826Z,94562.53
2022-08-17T06:24:18.813Z,94563.44
2022-08-17T06:25:21.090Z,94571.91
2022-08-17T06:26:25.938Z,94561.88
2022-08-17T06:27:57.262Z,94563.34
2022-08-17T06:29:18.707Z,94421.09
2022-08-17T06:30:28.995Z,94572.47
2022-08-17T06:31:46.120Z,94579.56
2022-08-17T06:32:46.249Z,94433.94
2022-08-17T06:33:46.385Z,94546.56
2022-08-17T06:34:46.249Z,94576.53
2022-08-17T06:36:11.309Z,94470.44
2022-08-17T06:37:35.766Z,94558.94
2022-08-17T06:38:46.705Z,94564.47
2022-08-17T06:40:10.953Z,94561.59
2022-08-17T06:41:17.068Z,94554.09
2022-08-17T06:43:02.864Z,94558.66
2022-08-17T06:43:49.412Z,94559.34
2022-08-17T06:45:14.365Z,94561.69
2022-08-17T06:46:42.906Z,94545.91
2022-08-17T06:48:05.916Z,94560.59
2022-08-17T06:49:25.866Z,94562.09
2022-08-17T06:50:35.974Z,94545.31
2022-08-17T06:51:50.609Z,94522.44
2022-08-17T06:52:57.692Z,94562.41
2022-08-17T06:54:15.261Z,94566.81
2022-08-17T06:55:19.461Z,94560.75
2022-08-17T06:56:53.851Z,94549.97
2022-08-17T06:57:57.590Z,94535.63
2022-08-17T06:58:57.350Z,94542.78
2022-08-17T06:59:56.858Z,94567.66
2022-08-17T07:00:59.080Z,94545.84
2022-08-17T07:01:56.474Z,94553.59
2022-08-17T07:02:59.568Z,94559.13
2022-08-17T07:04:12.150Z,94563.13
2022-08-17T07:05:09.992Z,94557.59
2022-08-17T07:06:14.636Z,94555.72
2022-08-17T07:07:31.750Z,94553.44
2022-08-17T07:09:10.006Z,94559.06
2022-08-17T07:10:10.801Z,94568.47
2022-08-17T07:11:15.039Z,94561.91
2022-08-17T07:12:17.806Z,94459.84
2022-08-17T07:13:44.572Z,94553.50
2022-08-17T07:14:54.213Z,94559.66
2022-08-17T07:16:10.210Z,94570.00
2022-08-17T07:17:20.623Z,94554.38
2022-08-17T07:18:17.505Z,94557.06
2022-08-17T07:19:16.872Z,94572.69
2022-08-17T07:20:23.126Z,94573.69
2022-08-17T07:21:28.610Z,94560.78
2022-08-17T07:22:54.457Z,94567.38
2022-08-17T07:24:43.243Z,94559.63
2022-08-17T07:25:40.133Z,94543.28
2022-08-17T07:26:38.864Z,94540.06
2022-08-17T07:27:40.261Z,94564.16
2022-08-17T07:28:38.508Z,94577.63
2022-08-17T07:29:49.476Z,94543.88
2022-08-17T07:30:53.606Z,94569.03
2022-08-17T07:31:50.990Z,94559.75
2022-08-17T07:33:13.422Z,94569.75
2022-08-17T07:34:14.652Z,94563.38
2022-08-17T07:35:37.750Z,94552.44
2022-08-17T07:36:37.902Z,94567.41
2022-08-17T07:37:38.871Z,94562.63
2022-08-17T07:38:35.740Z,94571.03
2022-08-17T07:39:32.728Z,94569.78
2022-08-17T07:40:41.361Z,94568.69
2022-08-17T07:41:57.491Z,94565.84
2022-08-17T07:43:23.877Z,94559.34
2022-08-17T07:44:20.723Z,94477.31
2022-08-17T07:45:36.271Z,94551.56
2022-08-17T07:46:54.706Z,94561.22
2022-08-17T07:48:10.469Z,94552.97
2022-08-17T07:49:15.164Z,94551.22
2022-08-17T07:50:27.899Z,94556.94
2022-08-17T07:51:29.214Z,94555.03
2022-08-17T07:52:51.997Z,94543.59
2022-08-17T07:53:48.449Z,94548.63
2022-08-17T07:54:45.214Z,94536.47
2022-08-17T07:55:42.944Z,94560.91
2022-08-17T07:56:45.673Z,94534.06
2022-08-17T07:57:42.399Z,94551.84
2022-08-17T07:58:39.334Z,94525.81
2022-08-17T08:00:01.405Z,94549.47
2022-08-17T08:01:10.616Z,94531.22
2022-08-17T08:02:40.300Z,94544.53
2022-08-17T08:03:46.270Z,94399.47
2022-08-17T08:05:06.737Z,94554.19
2022-08-17T08:06:20.858Z,94500.56
2022-08-17T08:07:17.667Z,94546.53
2022-08-17T08:08:33.518Z,94539.03
2022-08-17T08:09:32.649Z,94540.97
2022-08-17T08:10:38.438Z,94493.16
2022-08-17T08:11:44.105Z,94532.16
2022-08-17T08:12:53.710Z,94554.25
2022-08-17T08:13:50.842Z,94547.81
2022-08-17T08:14:59.726Z,94529.97
2022-08-17T08:16:20.605Z,94543.78
2022-08-17T08:17:26.606Z,94543.81
2022-08-17T08:18:45.927Z,94525.50
2022-08-17T08:19:52.198Z,94540.94
2022-08-17T08:21:09.578Z,94508.00
2022-08-17T08:22:18.535Z,94535.88
2022-08-17T08:23:18.775Z,94527.59
2022-08-17T08:24:40.204Z,94525.41
2022-08-17T08:26:05.485Z,94531.47
2022-08-17T08:27:21.948Z,94531.38
2022-08-17T08:28:25.944Z,94540.94
2022-08-17T08:30:02.924Z,94530.13
2022-08-17T08:31:17.316Z,94494.59
2022-08-17T08:32:28.769Z,94527.53
2022-08-17T08:33:41.867Z,94426.72
2022-08-17T08:35:02.672Z,94507.53
2022-08-17T08:36:03.340Z,94528.56
2022-08-17T08:37:36.634Z,94523.09
2022-08-17T08:39:09.743Z,94511.91
2022-08-17T08:40:35.250Z,94524.19
2022-08-17T08:41:58.883Z,94518.53
2022-08-17T08:43:13.949Z,94530.91
2022-08-17T08:45:00.064Z,94529.06
2022-08-17T08:46:10.254Z,94518.78
2022-08-17T08:47:18.268Z,94520.22
2022-08-17T08:49:12.196Z,94515.84
2022-08-17T08:50:37.142Z,94500.44
2022-08-17T08:51:52.559Z,94529.97
2022-08-17T08:53:02.726Z,94486.75
2022-08-17T08:54:43.268Z,94521.94
2022-08-17T08:56:02.965Z,94470.88
2022-08-17T08:57:26.808Z,94517.16
2022-08-17T08:58:50.719Z,94519.56
2022-08-17T09:00:13.170Z,94521.53
2022-08-17T09:01:21.464Z,94532.66
2022-08-17T09:02:45.601Z,94519.06
2022-08-17T09:04:18.351Z,94473.16
2022-08-17T09:05:34.394Z,94514.84
2022-08-17T09:06:57.410Z,94491.16
2022-08-17T09:07:56.300Z,94518.06
2022-08-17T09:09:16.214Z,94515.56
2022-08-17T09:10:49.661Z,94514.06
2022-08-17T09:12:04.108Z,94511.25
2022-08-17T09:13:18.129Z,94497.63
2022-08-17T09:14:32.510Z,94521.25
2022-08-17T09:16:09.561Z,94513.03
2022-08-17T09:17:19.361Z,94513.31
2022-08-17T09:19:02.840Z,94506.06
2022-08-17T09:20:27.973Z,94524.72
2022-08-17T09:21:48.989Z,94513.69
2022-08-17T09:22:57.855Z,94502.25
2022-08-17T09:24:04.942Z,94522.22
2022-08-17T09:25:28.356Z,94523.34
2022-08-17T09:26:35.177Z,94521.75
2022-08-17T09:27:41.685Z,94532.16
2022-08-17T09:28:44.558Z,94516.28
2022-08-17T09:30:00.860Z,94523.47
2022-08-17T09:31:09.710Z,94515.81
2022-08-17T09:32:24.890Z,94518.19
2022-08-17T09:33:27.733Z,94509.56
2022-08-17T09:34:40.342Z,94525.81
2022-08-17T09:35:48.678Z,94520.81
2022-08-17T09:37:15.760Z,94531.06
2022-08-17T09:38:35.453Z,94517.00
2022-08-17T09:40:10.075Z,94514.25
2022-08-17T09:41:15.845Z,94508.56
2022-08-17T09:42:39.592Z,94515.56
2022-08-17T09:43:50.721Z,94506.97
2022-08-17T09:45:04.299Z,94424.41
2022-08-17T09:46:09.920Z,94512.97
2022-08-17T09:47:30.650Z,94518.63
2022-08-17T09:48:41.695Z,94509.13
2022-08-17T09:49:49.718Z,94471.19
2022-08-17T09:51:03.772Z,94512.31
2022-08-17T09:52:14.697Z,94506.66
2022-08-17T09:53:15.081Z,94518.50
2022-08-17T09:54:38.672Z,94506.66
2022-08-17T09:55:45.126Z,94504.09
2022-08-17T09:57:05.710Z,94505.81
2022-08-17T09:58:20.308Z,94513.03
2022-08-17T09:59:38.896Z,94506.69
2022-08-17T10:00:53.199Z,94506.69
2022-08-17T10:02:21.215Z,94516.19
2022-08-17T10:03:40.506Z,94504.22
2022-08-17T10:05:03.959Z,94482.00
2022-08-17T10:06:07.826Z,94499.25
2022-08-17T10:07:18.296Z,94502.69
2022-08-17T10:08:27.606Z,94503.97
2022-08-17T10:09:27.047Z,94495.22
2022-08-17T10:10:52.357Z,94499.25
2022-08-17T10:12:17.842Z,94490.03
2022-08-17T10:13:22.977Z,94493.41
2022-08-17T10:14:43.680Z,94488.31
2022-08-17T10:15:47.156Z,94497.47
2022-08-17T10:17:03.362Z,94495.94
2022-08-17T10:18:18.271Z,94494.00
2022-08-17T10:19:35.706Z,94494.31
2022-08-17T10:21:19.103Z,94492.75
2022-08-17T10:22:44.008Z,94503.16
2022-08-17T10:24:03.667Z,94484.63
2022-08-17T10:25:24.869Z,94466.41
2022-08-17T10:26:53.454Z,94489.47
2022-08-17T10:27:54.583Z,94464.03
2022-08-17T10:29:06.675Z,94441.78
2022-08-17T10:30:08.163Z,94484.84
2022-08-17T10:31:34.249Z,94485.50
2022-08-17T10:32:32.273Z,94492.94
2022-08-17T10:33:53.438Z,94499.66
2022-08-17T10:35:33.883Z,94471.97
2022-08-17T10:36:41.094Z,94495.47
2022-08-17T10:37:59.291Z,94495.69
2022-08-17T10:39:33.135Z,94483.50
2022-08-17T10:40:36.869Z,94484.69
2022-08-17T10:41:43.037Z,94409.41
2022-08-17T10:42:57.442Z,94480.53
2022-08-17T10:44:36.794Z,94476.00
2022-08-17T10:45:45.401Z,94487.75
2022-08-17T10:47:01.708Z,94478.72
2022-08-17T10:48:06.131Z,94465.66
2022-08-17T10:49:18.631Z,94478.28
2022-08-17T10:50:50.437Z,94478.13
2022-08-17T10:51:59.982Z,94412.81
2022-08-17T10:52:56.775Z,94457.59
2022-08-17T10:53:55.042Z,94474.41
2022-08-17T10:54:51.790Z,94474.13
2022-08-17T10:56:12.936Z,94442.41
2022-08-17T10:57:34.490Z,94476.06
2022-08-17T10:58:50.999Z,94484.66
2022-08-17T10:59:50.855Z,94478.28
2022-08-17T11:00:53.804Z,94475.06
2022-08-17T11:02:12.350Z,94474.41
2022-08-17T11:03:24.706Z,94478.69
2022-08-17T11:04:21.508Z,94470.28
2022-08-17T11:05:22.289Z,94473.47
2022-08-17T11:06:51.514Z,94443.34
2022-08-17T11:07:48.190Z,94476.19
2022-08-17T11:09:02.482Z,94472.50
2022-08-17T11:10:17.783Z,94477.13
2022-08-17T11:11:38.765Z,94470.47
2022-08-17T11:13:08.731Z,94453.97
2022-08-17T11:14:33.850Z,94465.97
2022-08-17T11:16:10.634Z,94478.50
2022-08-17T11:17:44.691Z,94468.41
2022-08-17T11:19:31.896Z,94470.25
2022-08-17T11:21:04.526Z,94467.28
2022-08-17T11:22:33.701Z,94470.38
2022-08-17T11:23:39.966Z,94474.06
2022-08-17T11:24:51.469Z,94461.59
2022-08-17T11:25:53.177Z,94486.19
2022-08-17T11:27:26.616Z,94479.06
2022-08-17T11:28:34.589Z,94478.38
2022-08-17T11:29:51.954Z,94475.31
2022-08-17T11:30:55.299Z,94482.91
2022-08-17T11:32:03.233Z,94446.34
2022-08-17T11:32:59.969Z,94479.44
2022-08-17T11:33:59.773Z,94469.03
2022-08-17T11:35:13.630Z,94386.03
2022-08-17T11:36:12.946Z,94469.78
2022-08-17T11:37:09.601Z,94479.78
2022-08-17T11:38:31.330Z,94474.03
2022-08-17T11:39:49.868Z,94476.44
2022-08-17T11:40:49.324Z,94475.47
2022-08-17T11:41:48.931Z,94472.41
2022-08-17T11:42:45.606Z,94484.75
2022-08-17T11:44:10.578Z,94478.31
2022-08-17T11:45:32.626Z,94472.41
2022-08-17T11:47:13.358Z,94481.78
2022-08-17T11:48:56.345Z,94490.59
2022-08-17T11:50:38.974Z,94490.31
2022-08-17T11:52:04.257Z,94485.91
2022-08-17T11:53:01.260Z,94452.38
2022-08-17T11:55:41.754Z,94490.19
2022-08-17T11:56:49.932Z,94485.44
2022-08-17T11:58:00.957Z,94490.91
2022-08-17T11:58:58.802Z,94474.22
2022-08-17T12:00:11.165Z,94495.22
2022-08-17T12:01:52.499Z,94478.28
2022-08-17T12:03:27.773Z,94485.97
2022-08-17T12:04:30.373Z,94484.50
2022-08-17T12:05:32.980Z,94491.72
2022-08-17T12:06:41.392Z,94500.19
2022-08-17T12:08:07.147Z,94481.25
2022-08-17T12:09:21.268Z,94458.41
2022-08-17T12:10:30.233Z,94456.22
2022-08-17T12:12:12.842Z,94489.97
2022-08-17T12:13:15.904Z,94491.44
2022-08-17T12:14:45.049Z,94509.28
2022-08-17T12:15:51.049Z,94488.72
2022-08-17T12:17:04.234Z,94495.59
2022-08-17T12:18:01.215Z,94501.69
2022-08-17T12:19:02.476Z,94472.28
2022-08-17T12:20:19.717Z,94486.38
2022-08-17T12:21:23.746Z,94500.84
2022-08-17T12:22:38.731Z,94434.91
2022-08-17T12:24:05.314Z,94478.06
2022-08-17T12:25:19.234Z,94492.31
2022-08-17T12:26:25.073Z,94465.41
2022-08-17T12:27:46.098Z,94482.09
2022-08-17T12:28:47.978Z,94487.28
2022-08-17T12:29:45.193Z,94448.69
2022-08-17T12:30:49.778Z,94470.38
2022-08-17T12:31:52.463Z,94469.94
2022-08-17T12:32:50.092Z,94475.69
2022-08-17T12:33:49.941Z,94419.34
2022-08-17T12:34:49.909Z,94478.56
2022-08-17T12:35:47.425Z,94471.19
2022-08-17T12:36:50.340Z,94482.25
2022-08-17T12:37:50.390Z,94480.50
2022-08-17T12:39:12.821Z,94376.03
2022-08-17T12:40:23.386Z,94485.03
2022-08-17T12:41:34.213Z,94487.28
2022-08-17T12:42:36.327Z,94400.06
2022-08-17T12:43:33.658Z,94452.47
2022-08-17T12:44:36.446Z,94429.81
2022-08-17T12:46:01.030Z,94484.59
2022-08-17T12:47:19.350Z,94482.81
2022-08-17T12:48:27.064Z,94489.81
2022-08-17T12:49:36.975Z,94475.09
2022-08-17T12:50:40.583Z,94475.22
2022-08-17T12:51:42.023Z,94477.84
2022-08-17T12:52:42.682Z,94474.91
2022-08-17T12:53:45.474Z,94460.66
2022-08-17T12:55:18.008Z,94463.84
2022-08-17T12:56:15.342Z,94471.28
2022-08-17T12:57:42.877Z,94396.34
2022-08-17T12:58:53.411Z,94483.03
2022-08-17T12:59:58.957Z,94390.13
2022-08-17T13:01:06.124Z,94431.31
2022-08-17T13:02:03.174Z,94386.59
2022-08-17T13:03:22.867Z,94483.38
2022-08-17T13:04:20.277Z,94464.03
2022-08-17T13:05:41.575Z,94449.13
2022-08-17T13:06:48.462Z,94456.78
2022-08-17T13:07:46.646Z,94462.59
2022-08-17T13:08:48.011Z,94423.56
2022-08-17T13:09:51.508Z,94466.75
2022-08-17T13:10:56.495Z,94451.03